sensor_id;sensor_type;location;lat;lon;timestamp;temperature;humidity
6556;DHT22;3311;48.32423000;14.29074500;2022-12-07T05:49:59;10.10;62.70
6556;DHT22;3311;48.32423000;14.29074500;2022-12-07T05:52:26;10.00;62.80
6556;DHT22;3311;48.32423000;14.29074500;2022-12-07T05:54:53;10.00;62.60
6556;DHT22;3311;48.32423000;14.29074500;2022-12-07T05:57:22;10.10;62.60
6556;DHT22;3311;48.32423000;14.29074500;2022-12-07T05:59:49;10.00;62.70
6556;DHT22;3311;48.32423000;14.29074500;2022-12-07T06:02:16;10.00;62.70
6556;DHT22;3311;48.32423000;14.29074500;2022-12-07T06:04:45;10.00;62.70
6556;DHT22;3311;48.32423000;14.29074500;2022-12-07T06:07:16;10.00;62.70
6556;DHT22;3311;48.32423000;14.29074500;2022-12-07T06:09:44;10.00;62.80
6556;DHT22;3311;48.32423000;14.29074500;2022-12-07T06:12:11;10.00;62.70
6556;DHT22;3311;48.32423000;14.29074500;2022-12-07T06:14:57;10.00;62.70
6556;DHT22;3311;48.32423000;14.29074500;2022-12-07T06:17:24;10.10;62.70
6556;DHT22;3311;48.32423000;14.29074500;2022-12-07T06:19:52;10.00;62.40
6556;DHT22;3311;48.32423000;14.29074500;2022-12-07T06:22:20;10.00;62.50
6556;DHT22;3311;48.32423000;14.29074500;2022-12-07T06:24:47;10.10;62.40
6556;DHT22;3311;48.32423000;14.29074500;2022-12-07T06:27:15;10.10;62.30
6556;DHT22;3311;48.32423000;14.29074500;2022-12-07T06:29:42;10.00;63.10
6556;DHT22;3311;48.32423000;14.29074500;2022-12-07T06:32:09;10.00;62.30
6556;DHT22;3311;48.32423000;14.29074500;2022-12-07T06:34:37;9.90;63.40
6556;DHT22;3311;48.32423000;14.29074500;2022-12-07T06:37:04;10.00;62.40
6556;DHT22;3311;48.32423000;14.29074500;2022-12-07T06:39:33;10.00;62.20
6556;DHT22;3311;48.32423000;14.29074500;2022-12-07T06:42:00;9.90;63.30
6556;DHT22;3311;48.32423000;14.29074500;2022-12-07T06:44:28;9.90;63.10
6556;DHT22;3311;48.32423000;14.29074500;2022-12-07T06:46:55;9.90;63.80
6556;DHT22;3311;48.32423000;14.29074500;2022-12-07T06:49:22;10.00;62.50
6556;DHT22;3311;48.32423000;14.29074500;2022-12-07T06:51:50;9.90;63.50
6556;DHT22;3311;48.32423000;14.29074500;2022-12-07T06:54:17;10.00;62.60
6556;DHT22;3311;48.32423000;14.29074500;2022-12-07T06:56:46;9.90;63.50
6556;DHT22;3311;48.32423000;14.29074500;2022-12-07T06:59:13;9.90;63.40
6556;DHT22;3311;48.32423000;14.29074500;2022-12-07T07:01:40;9.90;63.60
6556;DHT22;3311;48.32423000;14.29074500;2022-12-07T07:04:07;9.90;63.50
6556;DHT22;3311;48.32423000;14.29074500;2022-12-07T07:06:34;9.90;63.70
6556;DHT22;3311;48.32423000;14.29074500;2022-12-07T07:09:02;9.90;63.30
6556;DHT22;3311;48.32423000;14.29074500;2022-12-07T07:11:29;10.00;62.60
6556;DHT22;3311;48.32423000;14.29074500;2022-12-07T07:13:57;10.00;62.20
6556;DHT22;3311;48.32423000;14.29074500;2022-12-07T07:16:28;10.00;62.10
6556;DHT22;3311;48.32423000;14.29074500;2022-12-07T07:18:56;10.10;61.80
6556;DHT22;3311;48.32423000;14.29074500;2022-12-07T07:21:23;10.10;61.90
6556;DHT22;3311;48.32423000;14.29074500;2022-12-07T07:23:50;10.00;61.80
6556;DHT22;3311;48.32423000;14.29074500;2022-12-07T07:26:17;10.00;62.00
6556;DHT22;3311;48.32423000;14.29074500;2022-12-07T07:28:44;10.00;62.10
6556;DHT22;3311;48.32423000;14.29074500;2022-12-07T07:31:13;10.10;61.80
6556;DHT22;3311;48.32423000;14.29074500;2022-12-07T07:33:40;10.10;61.60
6556;DHT22;3311;48.32423000;14.29074500;2022-12-07T07:36:08;10.20;61.40
6556;DHT22;3311;48.32423000;14.29074500;2022-12-07T07:38:35;10.20;61.10
6556;DHT22;3311;48.32423000;14.29074500;2022-12-07T07:41:03;10.20;61.10
6556;DHT22;3311;48.32423000;14.29074500;2022-12-07T07:43:30;10.10;61.30
6556;DHT22;3311;48.32423000;14.29074500;2022-12-07T07:45:57;10.10;61.20
6556;DHT22;3311;48.32423000;14.29074500;2022-12-07T07:48:26;10.20;61.10
6556;DHT22;3311;48.32423000;14.29074500;2022-12-07T07:50:53;10.20;61.10
6556;DHT22;3311;48.32423000;14.29074500;2022-12-07T07:53:20;10.20;61.00
6556;DHT22;3311;48.32423000;14.29074500;2022-12-07T07:55:51;10.20;60.90
6556;DHT22;3311;48.32423000;14.29074500;2022-12-07T07:58:19;10.20;61.00
6556;DHT22;3311;48.32423000;14.29074500;2022-12-07T08:00:47;10.30;60.80
6556;DHT22;3311;48.32423000;14.29074500;2022-12-07T08:03:14;10.30;60.50
6556;DHT22;3311;48.32423000;14.29074500;2022-12-07T08:05:44;10.40;60.30
6556;DHT22;3311;48.32423000;14.29074500;2022-12-07T08:08:12;10.40;60.40
6556;DHT22;3311;48.32423000;14.29074500;2022-12-07T08:10:40;10.40;60.10
6556;DHT22;3311;48.32423000;14.29074500;2022-12-07T08:13:08;10.40;60.40
6556;DHT22;3311;48.32423000;14.29074500;2022-12-07T08:15:40;10.40;60.50
6556;DHT22;3311;48.32423000;14.29074500;2022-12-07T08:18:08;10.50;59.90
6556;DHT22;3311;48.32423000;14.29074500;2022-12-07T08:20:36;10.50;59.90
6556;DHT22;3311;48.32423000;14.29074500;2022-12-07T08:23:06;10.60;59.70
6556;DHT22;3311;48.32423000;14.29074500;2022-12-07T08:25:34;10.60;59.60
6556;DHT22;3311;48.32423000;14.29074500;2022-12-07T08:28:02;10.60;59.50
6556;DHT22;3311;48.32423000;14.29074500;2022-12-07T08:30:30;10.50;59.50
6556;DHT22;3311;48.32423000;14.29074500;2022-12-07T08:32:58;10.50;59.40
6556;DHT22;3311;48.32423000;14.29074500;2022-12-07T08:35:25;10.60;59.40
6556;DHT22;3311;48.32423000;14.29074500;2022-12-07T08:37:52;10.50;59.20
6556;DHT22;3311;48.32423000;14.29074500;2022-12-07T08:40:21;10.50;59.60
6556;DHT22;3311;48.32423000;14.29074500;2022-12-07T08:42:49;10.50;59.50
6556;DHT22;3311;48.32423000;14.29074500;2022-12-07T08:45:17;10.50;59.40
6556;DHT22;3311;48.32423000;14.29074500;2022-12-07T08:47:48;10.50;59.40
6556;DHT22;3311;48.32423000;14.29074500;2022-12-07T08:50:17;10.60;59.30
6556;DHT22;3311;48.32423000;14.29074500;2022-12-07T08:52:49;10.70;59.20
6556;DHT22;3311;48.32423000;14.29074500;2022-12-07T08:55:18;10.80;58.90
6556;DHT22;3311;48.32423000;14.29074500;2022-12-07T08:57:48;10.70;58.90
6556;DHT22;3311;48.32423000;14.29074500;2022-12-07T09:00:15;10.70;58.80
6556;DHT22;3311;48.32423000;14.29074500;2022-12-07T09:02:43;10.70;59.00
6556;DHT22;3311;48.32423000;14.29074500;2022-12-07T09:05:11;10.70;58.90
6556;DHT22;3311;48.32423000;14.29074500;2022-12-07T09:07:41;10.80;58.90
6556;DHT22;3311;48.32423000;14.29074500;2022-12-07T09:10:10;11.00;58.60
6556;DHT22;3311;48.32423000;14.29074500;2022-12-07T09:12:37;11.00;58.40
6556;DHT22;3311;48.32423000;14.29074500;2022-12-07T09:15:10;11.10;58.40
6556;DHT22;3311;48.32423000;14.29074500;2022-12-07T09:17:37;11.20;58.20
6556;DHT22;3311;48.32423000;14.29074500;2022-12-07T09:20:07;11.30;57.90
6556;DHT22;3311;48.32423000;14.29074500;2022-12-07T09:22:34;11.30;57.70
6556;DHT22;3311;48.32423000;14.29074500;2022-12-07T09:25:02;11.30;57.40
6556;DHT22;3311;48.32423000;14.29074500;2022-12-07T09:27:29;11.30;57.40
6556;DHT22;3311;48.32423000;14.29074500;2022-12-07T09:29:57;11.20;57.50
6556;DHT22;3311;48.32423000;14.29074500;2022-12-07T09:32:25;11.30;57.50
6556;DHT22;3311;48.32423000;14.29074500;2022-12-07T09:34:53;11.20;57.20
6556;DHT22;3311;48.32423000;14.29074500;2022-12-07T09:37:20;11.10;57.50
6556;DHT22;3311;48.32423000;14.29074500;2022-12-07T09:39:48;11.20;57.50
6556;DHT22;3311;48.32423000;14.29074500;2022-12-07T09:42:26;11.20;57.10
6556;DHT22;3311;48.32423000;14.29074500;2022-12-07T09:44:54;11.30;57.20
6556;DHT22;3311;48.32423000;14.29074500;2022-12-07T09:47:21;11.20;56.60
6556;DHT22;3311;48.32423000;14.29074500;2022-12-07T09:49:50;11.20;56.80
6556;DHT22;3311;48.32423000;14.29074500;2022-12-07T09:52:19;11.20;56.60
6556;DHT22;3311;48.32423000;14.29074500;2022-12-07T09:54:50;11.10;56.40
6556;DHT22;3311;48.32423000;14.29074500;2022-12-07T09:57:27;11.30;56.50
6556;DHT22;3311;48.32423000;14.29074500;2022-12-07T09:59:56;11.30;56.60
6556;DHT22;3311;48.32423000;14.29074500;2022-12-07T10:02:32;11.40;56.70
6556;DHT22;3311;48.32423000;14.29074500;2022-12-07T10:05:04;11.40;56.50
6556;DHT22;3311;48.32423000;14.29074500;2022-12-07T10:07:32;11.30;56.00
6556;DHT22;3311;48.32423000;14.29074500;2022-12-07T10:09:59;11.30;56.10
6556;DHT22;3311;48.32423000;14.29074500;2022-12-07T10:12:28;11.30;55.80
6556;DHT22;3311;48.32423000;14.29074500;2022-12-07T10:14:58;11.30;56.10
6556;DHT22;3311;48.32423000;14.29074500;2022-12-07T10:17:34;11.30;56.10
6556;DHT22;3311;48.32423000;14.29074500;2022-12-07T10:20:23;11.30;55.80
6556;DHT22;3311;48.32423000;14.29074500;2022-12-07T10:22:56;11.20;56.10
6556;DHT22;3311;48.32423000;14.29074500;2022-12-07T10:25:26;11.20;56.00
6556;DHT22;3311;48.32423000;14.29074500;2022-12-07T10:28:15;11.20;56.00
6556;DHT22;3311;48.32423000;14.29074500;2022-12-07T10:30:52;11.20;56.20
6556;DHT22;3311;48.32423000;14.29074500;2022-12-07T10:33:30;11.20;55.70
6556;DHT22;3311;48.32423000;14.29074500;2022-12-07T10:36:00;11.20;55.60
6556;DHT22;3311;48.32423000;14.29074500;2022-12-07T10:38:28;11.20;55.70
6556;DHT22;3311;48.32423000;14.29074500;2022-12-07T10:41:06;11.20;55.80
6556;DHT22;3311;48.32423000;14.29074500;2022-12-07T10:43:33;11.20;55.60
6556;DHT22;3311;48.32423000;14.29074500;2022-12-07T10:49:43;11.10;55.80
6556;DHT22;3311;48.32423000;14.29074500;2022-12-07T10:52:21;11.20;55.70
6556;DHT22;3311;48.32423000;14.29074500;2022-12-07T10:55:02;11.20;55.60
6556;DHT22;3311;48.32423000;14.29074500;2022-12-07T10:57:45;11.20;55.60
6556;DHT22;3311;48.32423000;14.29074500;2022-12-07T11:00:18;11.30;55.90
6556;DHT22;3311;48.32423000;14.29074500;2022-12-07T11:03:03;11.30;55.70
6556;DHT22;3311;48.32423000;14.29074500;2022-12-07T11:05:39;11.30;55.50
6556;DHT22;3311;48.32423000;14.29074500;2022-12-07T11:08:19;11.30;56.10
6556;DHT22;3311;48.32423000;14.29074500;2022-12-07T11:10:53;11.30;55.50
6556;DHT22;3311;48.32423000;14.29074500;2022-12-07T11:13:27;11.30;55.70
6556;DHT22;3311;48.32423000;14.29074500;2022-12-07T11:16:19;11.40;55.50
6556;DHT22;3311;48.32423000;14.29074500;2022-12-07T11:19:05;11.30;55.30
6556;DHT22;3311;48.32423000;14.29074500;2022-12-07T11:21:42;11.40;55.60
6556;DHT22;3311;48.32423000;14.29074500;2022-12-07T11:24:16;11.40;55.70
6556;DHT22;3311;48.32423000;14.29074500;2022-12-07T11:27:06;11.40;55.50
6556;DHT22;3311;48.32423000;14.29074500;2022-12-07T11:29:50;11.50;55.80
6556;DHT22;3311;48.32423000;14.29074500;2022-12-07T11:32:31;11.50;55.50
6556;DHT22;3311;48.32423000;14.29074500;2022-12-07T11:35:08;11.50;55.30
6556;DHT22;3311;48.32423000;14.29074500;2022-12-07T11:37:38;11.50;55.20
6556;DHT22;3311;48.32423000;14.29074500;2022-12-07T11:40:17;11.50;55.20
6556;DHT22;3311;48.32423000;14.29074500;2022-12-07T11:42:52;11.40;55.00
6556;DHT22;3311;48.32423000;14.29074500;2022-12-07T11:45:24;11.40;55.00
6556;DHT22;3311;48.32423000;14.29074500;2022-12-07T11:47:55;11.40;54.60
6556;DHT22;3311;48.32423000;14.29074500;2022-12-07T11:50:33;11.30;54.90
6556;DHT22;3311;48.32423000;14.29074500;2022-12-07T11:53:03;11.30;55.00
6556;DHT22;3311;48.32423000;14.29074500;2022-12-07T11:55:42;11.30;54.70
6556;DHT22;3311;48.32423000;14.29074500;2022-12-07T11:58:23;11.30;54.80
6556;DHT22;3311;48.32423000;14.29074500;2022-12-07T12:01:06;11.40;55.00
6556;DHT22;3311;48.32423000;14.29074500;2022-12-07T12:03:38;11.40;54.80
6556;DHT22;3311;48.32423000;14.29074500;2022-12-07T12:06:07;11.40;54.70
6556;DHT22;3311;48.32423000;14.29074500;2022-12-07T12:08:38;11.40;54.70
6556;DHT22;3311;48.32423000;14.29074500;2022-12-07T12:11:15;11.40;54.70
6556;DHT22;3311;48.32423000;14.29074500;2022-12-07T12:14:18;11.40;54.40
6556;DHT22;3311;48.32423000;14.29074500;2022-12-07T12:17:15;11.50;54.60
6556;DHT22;3311;48.32423000;14.29074500;2022-12-07T12:19:59;11.40;54.40
6556;DHT22;3311;48.32423000;14.29074500;2022-12-07T12:22:33;11.50;54.80
6556;DHT22;3311;48.32423000;14.29074500;2022-12-07T12:25:05;11.30;54.40
6556;DHT22;3311;48.32423000;14.29074500;2022-12-07T12:27:37;11.50;54.90
6556;DHT22;3311;48.32423000;14.29074500;2022-12-07T12:30:23;11.50;54.50
6556;DHT22;3311;48.32423000;14.29074500;2022-12-07T12:32:52;11.40;54.40
6556;DHT22;3311;48.32423000;14.29074500;2022-12-07T12:35:29;11.30;54.60
6556;DHT22;3311;48.32423000;14.29074500;2022-12-07T12:38:29;11.40;54.70
6556;DHT22;3311;48.32423000;14.29074500;2022-12-07T12:40:57;11.30;54.80
6556;DHT22;3311;48.32423000;14.29074500;2022-12-07T12:43:48;11.40;55.00
6556;DHT22;3311;48.32423000;14.29074500;2022-12-07T12:46:49;11.50;54.70
6556;DHT22;3311;48.32423000;14.29074500;2022-12-07T12:49:36;11.40;54.10
6556;DHT22;3311;48.32423000;14.29074500;2022-12-07T12:55:15;11.50;54.00
6556;DHT22;3311;48.32423000;14.29074500;2022-12-07T12:57:48;11.40;53.80
6556;DHT22;3311;48.32423000;14.29074500;2022-12-07T13:00:37;11.40;53.90
6556;DHT22;3311;48.32423000;14.29074500;2022-12-07T13:03:05;11.30;54.00
6556;DHT22;3311;48.32423000;14.29074500;2022-12-07T13:05:32;11.40;53.90
6556;DHT22;3311;48.32423000;14.29074500;2022-12-07T13:08:02;11.40;54.20
6556;DHT22;3311;48.32423000;14.29074500;2022-12-07T13:10:39;11.40;53.70
6556;DHT22;3311;48.32423000;14.29074500;2022-12-07T13:13:34;11.30;53.70
6556;DHT22;3311;48.32423000;14.29074500;2022-12-07T13:22:39;11.30;54.10
6556;DHT22;3311;48.32423000;14.29074500;2022-12-07T13:25:11;11.40;54.10
6556;DHT22;3311;48.32423000;14.29074500;2022-12-07T13:27:41;11.40;53.90
6556;DHT22;3311;48.32423000;14.29074500;2022-12-07T13:30:16;11.40;53.80
6556;DHT22;3311;48.32423000;14.29074500;2022-12-07T13:32:52;11.30;53.60
6556;DHT22;3311;48.32423000;14.29074500;2022-12-07T13:35:31;11.30;53.60
6556;DHT22;3311;48.32423000;14.29074500;2022-12-07T13:38:02;11.30;53.80
6556;DHT22;3311;48.32423000;14.29074500;2022-12-07T13:40:30;11.20;53.80
6556;DHT22;3311;48.32423000;14.29074500;2022-12-07T13:42:59;11.30;54.00
6556;DHT22;3311;48.32423000;14.29074500;2022-12-07T13:45:28;11.30;53.70
6556;DHT22;3311;48.32423000;14.29074500;2022-12-07T13:48:14;11.30;53.50
6556;DHT22;3311;48.32423000;14.29074500;2022-12-07T13:50:51;11.30;53.50
6556;DHT22;3311;48.32423000;14.29074500;2022-12-07T13:53:20;11.20;53.40
6556;DHT22;3311;48.32423000;14.29074500;2022-12-07T13:55:48;11.20;53.60
6556;DHT22;3311;48.32423000;14.29074500;2022-12-07T13:58:16;11.20;53.70
6556;DHT22;3311;48.32423000;14.29074500;2022-12-07T14:00:44;11.30;53.60
6556;DHT22;3311;48.32423000;14.29074500;2022-12-07T14:03:27;11.20;53.40
6556;DHT22;3311;48.32423000;14.29074500;2022-12-07T14:06:15;11.20;53.50
6556;DHT22;3311;48.32423000;14.29074500;2022-12-07T14:08:45;11.20;53.30
6556;DHT22;3311;48.32423000;14.29074500;2022-12-07T14:11:17;11.10;53.50
6556;DHT22;3311;48.32423000;14.29074500;2022-12-07T14:13:56;11.20;53.80
6556;DHT22;3311;48.32423000;14.29074500;2022-12-07T14:16:27;11.10;53.50
6556;DHT22;3311;48.32423000;14.29074500;2022-12-07T14:18:56;11.10;53.30
6556;DHT22;3311;48.32423000;14.29074500;2022-12-07T14:21:25;11.10;53.60
6556;DHT22;3311;48.32423000;14.29074500;2022-12-07T14:24:12;11.00;53.50
6556;DHT22;3311;48.32423000;14.29074500;2022-12-07T14:26:43;11.00;53.50
6556;DHT22;3311;48.32423000;14.29074500;2022-12-07T14:29:31;11.00;53.60
6556;DHT22;3311;48.32423000;14.29074500;2022-12-07T14:32:13;11.00;53.60
6556;DHT22;3311;48.32423000;14.29074500;2022-12-07T14:34:54;11.00;53.60
6556;DHT22;3311;48.32423000;14.29074500;2022-12-07T14:37:21;10.90;53.60
6556;DHT22;3311;48.32423000;14.29074500;2022-12-07T14:39:50;11.00;53.70
6556;DHT22;3311;48.32423000;14.29074500;2022-12-07T14:42:17;11.00;53.50
6556;DHT22;3311;48.32423000;14.29074500;2022-12-07T14:44:45;10.90;53.70
6556;DHT22;3311;48.32423000;14.29074500;2022-12-07T14:47:12;11.00;53.80
6556;DHT22;3311;48.32423000;14.29074500;2022-12-07T14:49:40;10.90;53.50
6556;DHT22;3311;48.32423000;14.29074500;2022-12-07T14:52:14;10.90;53.70
6556;DHT22;3311;48.32423000;14.29074500;2022-12-07T14:54:42;11.00;53.50
6556;DHT22;3311;48.32423000;14.29074500;2022-12-07T14:57:12;10.90;53.60
6556;DHT22;3311;48.32423000;14.29074500;2022-12-07T14:59:40;10.80;53.80
6556;DHT22;3311;48.32423000;14.29074500;2022-12-07T15:02:10;10.70;54.10
6556;DHT22;3311;48.32423000;14.29074500;2022-12-07T15:04:39;10.70;54.30
6556;DHT22;3311;48.32423000;14.29074500;2022-12-07T15:07:14;10.70;54.40
6556;DHT22;3311;48.32423000;14.29074500;2022-12-07T15:09:43;10.80;54.30
6556;DHT22;3311;48.32423000;14.29074500;2022-12-07T15:12:11;10.80;54.10
6556;DHT22;3311;48.32423000;14.29074500;2022-12-07T15:14:39;10.80;54.20
6556;DHT22;3311;48.32423000;14.29074500;2022-12-07T15:17:06;10.70;54.30
6556;DHT22;3311;48.32423000;14.29074500;2022-12-07T15:19:33;10.70;54.80
6556;DHT22;3311;48.32423000;14.29074500;2022-12-07T15:22:01;10.60;54.80
6556;DHT22;3311;48.32423000;14.29074500;2022-12-07T15:24:28;10.60;54.90
6556;DHT22;3311;48.32423000;14.29074500;2022-12-07T15:26:56;10.60;55.00
6556;DHT22;3311;48.32423000;14.29074500;2022-12-07T15:29:24;10.60;55.10
6556;DHT22;3311;48.32423000;14.29074500;2022-12-07T15:31:52;10.70;54.90
6556;DHT22;3311;48.32423000;14.29074500;2022-12-07T15:34:19;10.60;54.80
6556;DHT22;3311;48.32423000;14.29074500;2022-12-07T15:36:47;10.60;54.70
6556;DHT22;3311;48.32423000;14.29074500;2022-12-07T15:39:14;10.40;54.90
6556;DHT22;3311;48.32423000;14.29074500;2022-12-07T15:41:42;10.40;55.00
6556;DHT22;3311;48.32423000;14.29074500;2022-12-07T15:44:11;10.40;55.20
6556;DHT22;3311;48.32423000;14.29074500;2022-12-07T15:46:59;10.50;55.60
6556;DHT22;3311;48.32423000;14.29074500;2022-12-07T15:49:27;10.40;55.70
6556;DHT22;3311;48.32423000;14.29074500;2022-12-07T15:51:55;10.50;55.60
6556;DHT22;3311;48.32423000;14.29074500;2022-12-07T15:54:24;10.50;55.20
6556;DHT22;3311;48.32423000;14.29074500;2022-12-07T15:56:52;10.60;55.20
6556;DHT22;3311;48.32423000;14.29074500;2022-12-07T15:59:20;10.50;55.70
6556;DHT22;3311;48.32423000;14.29074500;2022-12-07T16:01:48;10.40;55.60
6556;DHT22;3311;48.32423000;14.29074500;2022-12-07T16:04:17;10.40;56.30
6556;DHT22;3311;48.32423000;14.29074500;2022-12-07T16:06:44;10.30;56.40
6556;DHT22;3311;48.32423000;14.29074500;2022-12-07T16:09:12;10.30;56.50
6556;DHT22;3311;48.32423000;14.29074500;2022-12-07T16:11:40;10.40;56.40
6556;DHT22;3311;48.32423000;14.29074500;2022-12-07T16:14:07;10.50;56.20
6556;DHT22;3311;48.32423000;14.29074500;2022-12-07T16:16:35;10.40;55.90
6556;DHT22;3311;48.32423000;14.29074500;2022-12-07T16:19:02;10.50;55.90
6556;DHT22;3311;48.32423000;14.29074500;2022-12-07T16:21:34;10.40;55.70
6556;DHT22;3311;48.32423000;14.29074500;2022-12-07T16:24:02;10.50;55.90
6556;DHT22;3311;48.32423000;14.29074500;2022-12-07T16:26:29;10.50;55.90
6556;DHT22;3311;48.32423000;14.29074500;2022-12-07T16:28:57;10.30;55.80
6556;DHT22;3311;48.32423000;14.29074500;2022-12-07T16:31:25;10.30;56.00
6556;DHT22;3311;48.32423000;14.29074500;2022-12-07T16:33:54;10.40;56.00
6556;DHT22;3311;48.32423000;14.29074500;2022-12-07T16:36:22;10.30;56.00
6556;DHT22;3311;48.32423000;14.29074500;2022-12-07T16:38:52;10.40;55.90
6556;DHT22;3311;48.32423000;14.29074500;2022-12-07T16:41:20;10.30;56.20
6556;DHT22;3311;48.32423000;14.29074500;2022-12-07T16:43:47;10.20;56.40
6556;DHT22;3311;48.32423000;14.29074500;2022-12-07T16:46:15;10.10;56.40
6556;DHT22;3311;48.32423000;14.29074500;2022-12-07T16:48:43;10.20;56.70
6556;DHT22;3311;48.32423000;14.29074500;2022-12-07T16:51:13;10.30;56.50
6556;DHT22;3311;48.32423000;14.29074500;2022-12-07T16:53:41;10.30;56.30
6556;DHT22;3311;48.32423000;14.29074500;2022-12-07T16:56:15;10.20;56.30
6556;DHT22;3311;48.32423000;14.29074500;2022-12-07T16:58:44;10.10;56.40
6556;DHT22;3311;48.32423000;14.29074500;2022-12-07T17:01:17;10.00;56.80
6556;DHT22;3311;48.32423000;14.29074500;2022-12-07T17:03:47;10.00;56.80
6556;DHT22;3311;48.32423000;14.29074500;2022-12-07T17:06:17;10.00;56.70
6556;DHT22;3311;48.32423000;14.29074500;2022-12-07T17:08:48;10.00;56.90
6556;DHT22;3311;48.32423000;14.29074500;2022-12-07T17:11:24;10.00;57.00
6556;DHT22;3311;48.32423000;14.29074500;2022-12-07T17:13:54;10.00;57.00
6556;DHT22;3311;48.32423000;14.29074500;2022-12-07T17:16:39;10.00;57.20
6556;DHT22;3311;48.32423000;14.29074500;2022-12-07T17:19:07;9.90;57.90
6556;DHT22;3311;48.32423000;14.29074500;2022-12-07T17:21:36;9.70;58.60
6556;DHT22;3311;48.32423000;14.29074500;2022-12-07T17:24:06;9.80;58.60
6556;DHT22;3311;48.32423000;14.29074500;2022-12-07T17:26:36;9.90;58.50
6556;DHT22;3311;48.32423000;14.29074500;2022-12-07T17:29:05;10.00;57.30
6556;DHT22;3311;48.32423000;14.29074500;2022-12-07T17:31:36;10.00;57.30
6556;DHT22;3311;48.32423000;14.29074500;2022-12-07T17:34:14;10.10;57.10
6556;DHT22;3311;48.32423000;14.29074500;2022-12-07T17:36:41;9.90;58.30
6556;DHT22;3311;48.32423000;14.29074500;2022-12-07T17:39:13;10.00;57.50
6556;DHT22;3311;48.32423000;14.29074500;2022-12-07T17:41:42;10.00;57.30
6556;DHT22;3311;48.32423000;14.29074500;2022-12-07T17:44:27;9.90;58.30
6556;DHT22;3311;48.32423000;14.29074500;2022-12-07T17:46:55;10.00;57.40
6556;DHT22;3311;48.32423000;14.29074500;2022-12-07T17:49:24;10.10;57.30
6556;DHT22;3311;48.32423000;14.29074500;2022-12-07T17:51:52;9.90;58.30
6556;DHT22;3311;48.32423000;14.29074500;2022-12-07T17:54:38;10.00;57.70
6556;DHT22;3311;48.32423000;14.29074500;2022-12-07T17:57:09;9.90;58.60
6556;DHT22;3311;48.32423000;14.29074500;2022-12-07T17:59:38;10.00;57.50
6556;DHT22;3311;48.32423000;14.29074500;2022-12-07T18:02:10;10.10;57.40
6556;DHT22;3311;48.32423000;14.29074500;2022-12-07T18:04:38;10.10;57.40
6556;DHT22;3311;48.32423000;14.29074500;2022-12-07T18:07:08;10.00;57.60
6556;DHT22;3311;48.32423000;14.29074500;2022-12-07T18:09:36;9.90;58.60
6556;DHT22;3311;48.32423000;14.29074500;2022-12-07T18:12:05;10.00;57.90
6556;DHT22;3311;48.32423000;14.29074500;2022-12-07T18:14:34;10.10;57.60
6556;DHT22;3311;48.32423000;14.29074500;2022-12-07T18:17:02;10.00;57.40
6556;DHT22;3311;48.32423000;14.29074500;2022-12-07T18:19:30;9.90;58.70
6556;DHT22;3311;48.32423000;14.29074500;2022-12-07T18:22:02;10.00;57.80
6556;DHT22;3311;48.32423000;14.29074500;2022-12-07T18:24:30;10.00;57.80
6556;DHT22;3311;48.32423000;14.29074500;2022-12-07T18:26:58;10.10;57.80
6556;DHT22;3311;48.32423000;14.29074500;2022-12-07T18:29:33;9.80;58.70
6556;DHT22;3311;48.32423000;14.29074500;2022-12-07T18:32:02;9.90;59.10
6556;DHT22;3311;48.32423000;14.29074500;2022-12-07T18:34:33;9.90;59.10
6556;DHT22;3311;48.32423000;14.29074500;2022-12-07T18:37:01;9.80;59.10
6556;DHT22;3311;48.32423000;14.29074500;2022-12-07T18:39:29;10.00;58.30
6556;DHT22;3311;48.32423000;14.29074500;2022-12-07T18:41:57;10.00;58.10
6556;DHT22;3311;48.32423000;14.29074500;2022-12-07T18:44:25;9.90;59.00
6556;DHT22;3311;48.32423000;14.29074500;2022-12-07T18:46:54;9.70;59.80
6556;DHT22;3311;48.32423000;14.29074500;2022-12-07T18:49:23;9.80;59.50
6556;DHT22;3311;48.32423000;14.29074500;2022-12-07T18:51:53;9.90;59.30
6556;DHT22;3311;48.32423000;14.29074500;2022-12-07T18:54:21;10.00;58.20
6556;DHT22;3311;48.32423000;14.29074500;2022-12-07T18:56:49;9.90;59.10
6556;DHT22;3311;48.32423000;14.29074500;2022-12-07T18:59:18;9.80;59.30
6556;DHT22;3311;48.32423000;14.29074500;2022-12-07T19:02:06;9.70;59.50
6556;DHT22;3311;48.32423000;14.29074500;2022-12-07T19:04:35;9.80;59.60
6556;DHT22;3311;48.32423000;14.29074500;2022-12-07T19:07:05;9.80;59.40
6556;DHT22;3311;48.32423000;14.29074500;2022-12-07T19:09:32;9.70;59.70
6556;DHT22;3311;48.32423000;14.29074500;2022-12-07T19:12:01;9.70;59.90
6556;DHT22;3311;48.32423000;14.29074500;2022-12-07T19:14:31;9.60;59.90
6556;DHT22;3311;48.32423000;14.29074500;2022-12-07T19:17:05;9.70;59.90
6556;DHT22;3311;48.32423000;14.29074500;2022-12-07T19:19:37;9.60;59.90
6556;DHT22;3311;48.32423000;14.29074500;2022-12-07T19:22:12;9.60;60.30
6556;DHT22;3311;48.32423000;14.29074500;2022-12-07T19:24:50;9.60;60.30
6556;DHT22;3311;48.32423000;14.29074500;2022-12-07T19:27:23;9.50;60.40
6556;DHT22;3311;48.32423000;14.29074500;2022-12-07T19:30:05;9.50;60.90
6556;DHT22;3311;48.32423000;14.29074500;2022-12-07T19:32:39;9.60;60.40
6556;DHT22;3311;48.32423000;14.29074500;2022-12-07T19:35:08;9.60;60.40
6556;DHT22;3311;48.32423000;14.29074500;2022-12-07T19:37:38;9.80;60.30
6556;DHT22;3311;48.32423000;14.29074500;2022-12-07T19:40:20;9.70;60.20
6556;DHT22;3311;48.32423000;14.29074500;2022-12-07T19:42:50;9.70;60.20
6556;DHT22;3311;48.32423000;14.29074500;2022-12-07T19:45:18;9.60;59.90
6556;DHT22;3311;48.32423000;14.29074500;2022-12-07T19:47:47;9.50;60.40
6556;DHT22;3311;48.32423000;14.29074500;2022-12-07T19:50:17;9.50;60.40
6556;DHT22;3311;48.32423000;14.29074500;2022-12-07T19:52:53;8.20;59.30
6556;DHT22;3311;48.32423000;14.29074500;2022-12-07T19:55:24;9.70;60.30
6556;DHT22;3311;48.32423000;14.29074500;2022-12-07T19:57:52;9.70;60.10
6556;DHT22;3311;48.32423000;14.29074500;2022-12-07T20:00:21;9.80;59.90
6556;DHT22;3311;48.32423000;14.29074500;2022-12-07T20:02:52;9.80;59.90